Time;durP1;ratioP1;P1;durP2;ratioP2;P2;SDS_P1;SDS_P2;PMS_P1;PMS_P2;Temp;Humidity;BMP_temperature;BMP_pressure;BME280_temperature;BME280_humidity;BME280_pressure;Samples;Min_cycle;Max_cycle;Signal;HPM_P1;HPM_P2
2023/04/06 00:04:26;;;;;;;431.45;389.23;;;;;;;21.44;42.59;100516.69;20582996;28;20855;-71
2023/04/06 00:14:26;;;;;;;420.10;378.90;;;;;;;21.42;42.35;100500.13;20594523;28;20038;-71
2023/04/06 00:24:27;;;;;;;429.77;387.80;;;;;;;21.41;42.67;100498.47;20582718;28;20053;-72
2023/04/06 00:34:27;;;;;;;430.55;388.25;;;;;;;21.38;42.56;100486.34;20587319;28;20105;-72
2023/04/06 00:44:29;;;;;;;445.60;402.02;;;;;;;21.36;42.52;100487.44;20572170;28;20452;-72
2023/04/06 00:54:30;;;;;;;495.52;448.30;;;;;;;21.32;42.34;100480.75;20583385;28;20081;-71
2023/04/06 01:04:32;;;;;;;496.13;449.02;;;;;;;21.31;42.27;100490.41;20600037;28;20098;-71
2023/04/06 01:14:32;;;;;;;494.13;447.02;;;;;;;21.30;42.23;100487.91;20612047;28;20089;-72
2023/04/06 01:24:34;;;;;;;526.15;476.77;;;;;;;21.28;42.31;100488.88;20589699;28;20494;-73
2023/04/06 01:34:41;;;;;;;552.00;501.05;;;;;;;21.23;42.22;100485.75;20598780;28;20121;-72
2023/04/06 01:44:41;;;;;;;558.63;507.23;;;;;;;21.21;42.28;100489.47;20593038;28;20053;-70
2023/04/06 01:54:43;;;;;;;527.67;478.27;;;;;;;21.19;42.66;100473.78;20592982;28;20042;-71
2023/04/06 02:04:43;;;;;;;560.95;509.20;;;;;;;21.17;43.03;100473.06;20582544;28;20050;-71
2023/04/06 02:14:44;;;;;;;587.17;533.78;;;;;;;21.16;43.01;100468.72;20601252;28;20046;-70
2023/04/06 02:24:46;;;;;;;587.17;533.72;;;;;;;21.15;42.79;100456.53;20592640;28;20038;-72
2023/04/06 02:34:46;;;;;;;608.00;553.03;;;;;;;21.13;42.78;100454.97;20592132;28;20050;-72
2023/04/06 02:44:47;;;;;;;599.33;545.08;;;;;;;21.10;42.45;100446.38;20600751;28;20038;-73
2023/04/06 02:54:50;;;;;;;659.40;601.00;;;;;;;21.07;42.60;100448.38;20589522;28;20050;-71
2023/04/06 03:04:51;;;;;;;701.17;639.83;;;;;;;21.07;42.91;100437.84;20585824;28;20513;-73
2023/04/06 03:14:52;;;;;;;649.55;591.80;;;;;;;21.05;42.53;100445.84;20588434;28;20050;-72
2023/04/06 03:24:53;;;;;;;677.40;617.67;;;;;;;21.01;42.80;100444.41;20569025;28;20046;-71
2023/04/06 03:34:57;;;;;;;767.55;701.55;;;;;;;21.01;43.02;100448.84;20591352;28;20045;-74
2023/04/06 03:44:58;;;;;;;755.38;690.03;;;;;;;20.96;42.80;100446.56;20587826;28;20134;-71
2023/04/06 03:54:59;;;;;;;795.45;727.60;;;;;;;20.94;42.55;100445.84;20586295;28;20046;-73
2023/04/06 04:04:59;;;;;;;755.47;690.28;;;;;;;20.92;42.68;100437.19;20635426;28;20563;-71
2023/04/06 04:15:00;;;;;;;761.92;696.40;;;;;;;20.97;42.44;100428.97;20646199;28;20047;-70
2023/04/06 04:25:00;;;;;;;776.58;709.67;;;;;;;21.05;42.59;100424.78;20659869;28;20031;-72
2023/04/06 04:35:01;;;;;;;791.92;723.92;;;;;;;21.15;42.90;100419.66;20655719;28;20057;-73
2023/04/06 04:45:01;;;;;;;894.70;819.90;;;;;;;21.22;44.00;100412.97;20657358;28;20058;-71
2023/04/06 04:55:03;;;;;;;871.05;797.70;;;;;;;21.21;41.24;100418.34;20653536;28;20908;-73
2023/04/06 05:05:04;;;;;;;858.10;785.78;;;;;;;21.23;40.46;100414.66;20673288;28;20049;-72
2023/04/06 05:15:05;;;;;;;821.83;751.88;;;;;;;21.30;42.10;100391.31;20677460;28;20046;-73
2023/04/06 05:25:07;;;;;;;780.58;713.30;;;;;;;21.35;42.07;100389.16;20671587;28;20046;-73
2023/04/06 05:35:07;;;;;;;779.90;712.70;;;;;;;21.42;42.53;100379.81;20675753;28;20077;-73
2023/04/06 05:45:10;;;;;;;773.20;706.40;;;;;;;21.48;42.43;100357.41;20675428;28;20541;-73
2023/04/06 05:55:11;;;;;;;703.17;641.33;;;;;;;21.52;41.58;100355.38;20648916;28;20046;-74
2023/04/06 06:05:11;;;;;;;705.70;643.38;;;;;;;21.58;42.75;100361.03;20665699;28;20101;-72
2023/04/06 06:15:12;;;;;;;678.67;618.17;;;;;;;21.66;42.80;100347.22;20679544;28;20054;-75
2023/04/06 06:25:13;;;;;;;661.67;602.35;;;;;;;21.70;42.80;100339.91;20658369;28;20049;-71
2023/04/06 06:35:20;;;;;;;676.85;616.45;;;;;;;21.77;42.29;100330.56;20674974;28;20054;-76
2023/04/06 06:45:21;;;;;;;690.90;629.53;;;;;;;21.82;42.83;100325.75;20666384;28;20065;-76
2023/04/06 06:55:22;;;;;;;670.40;610.22;;;;;;;21.86;42.40;100318.44;20678837;28;20052;-73
2023/04/06 07:05:23;;;;;;;686.08;625.00;;;;;;;21.89;42.13;100320.81;20675663;28;20053;-73
2023/04/06 07:15:24;;;;;;;708.80;645.97;;;;;;;21.86;38.96;100324.56;20666281;28;20059;-72
2023/04/06 07:25:25;;;;;;;707.70;644.88;;;;;;;21.83;39.36;100314.25;20678855;28;20375;-73
2023/04/06 07:35:27;;;;;;;711.80;648.63;;;;;;;21.87;40.25;100307.78;20632155;28;20050;-72
2023/04/06 07:45:27;;;;;;;716.35;653.13;;;;;;;21.90;40.64;100301.41;20688568;28;20059;-71
2023/04/06 07:55:28;;;;;;;714.63;651.33;;;;;;;21.92;40.50;100302.09;20658522;28;21666;-70
2023/04/06 08:05:28;;;;;;;674.33;614.00;;;;;;;21.95;41.06;100299.22;20689315;28;20385;-72
2023/04/06 08:15:28;;;;;;;683.75;622.60;;;;;;;21.97;40.82;100293.81;20696048;28;20125;-71
2023/04/06 08:25:29;;;;;;;681.95;621.03;;;;;;;21.98;41.22;100284.97;20703769;28;20426;-72
2023/04/06 08:35:31;;;;;;;724.30;660.30;;;;;;;21.99;41.51;100276.91;20697109;28;20050;-72
2023/04/06 08:45:32;;;;;;;728.05;663.90;;;;;;;21.99;41.44;100270.81;20705068;28;20789;-74
2023/04/06 08:55:33;;;;;;;761.73;695.07;;;;;;;22.00;41.14;100275.94;20694629;28;20044;-76
2023/04/06 09:05:35;;;;;;;738.75;673.60;;;;;;;22.01;41.67;100271.53;20674411;28;20038;-78
2023/04/06 09:15:35;;;;;;;766.60;699.25;;;;;;;21.97;39.10;100264.81;20662821;28;20056;-75
2023/04/06 09:25:35;;;;;;;778.00;710.35;;;;;;;21.99;40.67;100260.28;20695368;28;20041;-77
2023/04/06 09:35:37;;;;;;;738.97;674.05;;;;;;;22.00;40.53;100252.22;20710054;28;20061;-76
2023/04/06 09:45:43;;;;;;;718.80;655.20;;;;;;;22.00;40.55;100251.41;20677550;28;20089;-77
2023/04/06 09:55:46;;;;;;;746.00;680.42;;;;;;;22.01;40.85;100242.53;20668191;28;20049;-77
2023/04/06 10:05:59;;;;;;;732.43;667.80;;;;;;;22.01;40.74;100237.25;20666925;28;20057;-75
2023/04/06 10:16:03;;;;;;;681.90;621.08;;;;;;;22.01;40.19;100224.09;20674470;28;20054;-75
2023/04/06 10:26:03;;;;;;;711.92;648.80;;;;;;;22.02;40.54;100216.03;20673098;28;20118;-76
2023/04/06 10:36:36;;;;;;;672.85;612.67;;;;;;;22.05;41.27;100204.38;20676973;28;20129;-76
2023/04/06 10:46:37;;;;;;;659.63;600.28;;;;;;;22.10;41.33;100204.84;20669673;28;20042;-76
2023/04/06 10:56:38;;;;;;;680.67;619.70;;;;;;;22.12;41.39;100199.41;20668333;28;20536;-75
2023/04/06 11:06:40;;;;;;;700.05;637.90;;;;;;;22.13;41.31;100178.22;20677420;28;20045;-76
2023/04/06 11:16:41;;;;;;;665.92;606.20;;;;;;;22.15;41.38;100175.44;20681910;28;20197;-75
2023/04/06 11:26:48;;;;;;;677.65;616.95;;;;;;;22.17;40.85;100173.53;20668500;28;20058;-76
2023/04/06 11:36:54;;;;;;;670.35;610.22;;;;;;;22.18;42.29;100170.75;20708071;28;20125;-76
2023/04/06 11:46:57;;;;;;;703.30;640.83;;;;;;;22.18;42.29;100165.47;20673749;28;20030;-77
2023/04/06 11:56:57;;;;;;;656.60;597.30;;;;;;;22.17;42.06;100149.78;20693102;28;20073;-76
2023/04/06 12:06:59;;;;;;;652.45;593.53;;;;;;;22.14;42.06;100142.13;20700736;28;20042;-76
2023/04/06 12:16:59;;;;;;;639.23;581.30;;;;;;;22.12;41.59;100137.00;20705770;28;20133;-77
2023/04/06 12:27:01;;;;;;;649.13;590.63;;;;;;;22.11;41.51;100145.84;20674301;28;20042;-77
2023/04/06 12:37:01;;;;;;;624.80;567.90;;;;;;;22.13;41.72;100136.03;20664699;28;20276;-77
2023/04/06 12:47:02;;;;;;;649.58;591.08;;;;;;;22.14;41.37;100131.56;20672571;28;20052;-77
2023/04/06 12:57:02;;;;;;;618.60;562.30;;;;;;;22.11;41.49;100119.50;20685057;28;20045;-78
2023/04/06 13:07:03;;;;;;;615.20;559.00;;;;;;;22.10;41.24;100112.53;20718082;28;20034;-79
2023/04/06 13:17:03;;;;;;;601.60;546.30;;;;;;;22.11;40.68;100121.31;20696704;28;20379;-79
2023/04/06 13:27:04;;;;;;;645.85;587.75;;;;;;;22.06;40.01;100119.06;20688408;28;20061;-77
2023/04/06 13:37:04;;;;;;;668.05;608.45;;;;;;;22.03;40.45;100106.13;20696555;28;20041;-77
2023/04/06 13:47:05;;;;;;;638.17;580.35;;;;;;;22.04;40.72;100115.69;20667539;28;20308;-80
2023/04/06 13:57:07;;;;;;;577.85;524.33;;;;;;;21.94;38.14;100096.38;20676379;28;20514;-79
2023/04/06 14:07:08;;;;;;;653.75;595.03;;;;;;;21.87;36.86;100091.63;20673283;28;20073;-79
2023/04/06 14:17:09;;;;;;;686.90;626.10;;;;;;;21.87;37.97;100096.91;20685010;28;20053;-79
2023/04/06 14:27:12;;;;;;;660.63;601.63;;;;;;;21.88;39.02;100105.63;20686137;28;20615;-78
2023/04/06 14:37:13;;;;;;;657.03;598.08;;;;;;;21.87;39.16;100098.69;20657317;28;20073;-79
2023/04/06 14:47:19;;;;;;;654.90;596.17;;;;;;;21.85;39.73;100095.34;20665261;28;20138;-79
2023/04/06 14:57:20;;;;;;;698.97;636.95;;;;;;;21.84;39.96;100105.06;20648963;28;20539;-78
2023/04/06 15:07:20;;;;;;;681.38;620.83;;;;;;;21.82;40.12;100120.16;20649952;28;20030;-78
2023/04/06 15:17:21;;;;;;;670.83;611.05;;;;;;;21.81;40.46;100128.19;20658386;28;20412;-77
2023/04/06 15:27:21;;;;;;;665.30;605.90;;;;;;;21.79;40.72;100136.25;20653772;28;20051;-77
2023/04/06 15:37:24;;;;;;;639.30;581.72;;;;;;;21.77;40.59;100138.16;20647923;28;20065;-77
2023/04/06 15:47:25;;;;;;;652.38;593.92;;;;;;;21.78;40.65;100141.66;20647530;28;20062;-77
2023/04/06 15:57:26;;;;;;;661.53;602.42;;;;;;;;;;20670534;28;20021;-78
2023/04/06 16:07:26;;;;;;;659.45;599.50;;;;;;;;;;20650681;28;20058;-76
2023/04/06 16:17:26;;;;;;;659.85;601.00;;;;;;;21.69;41.06;100144.09;20638670;28;20042;-74
2023/04/06 16:27:27;;;;;;;631.45;574.35;;;;;;;21.69;42.04;100146.72;20656217;28;20042;-77
2023/04/06 16:37:29;;;;;;;670.92;610.97;;;;;;;21.68;41.90;100152.94;20652768;28;20052;-78
2023/04/06 16:47:30;;;;;;;639.95;582.47;;;;;;;21.68;42.52;100158.22;20660819;28;20065;-77
2023/04/06 16:57:31;;;;;;;658.40;599.42;;;;;;;21.69;43.15;100162.53;20659698;28;20038;-77
2023/04/06 17:07:32;;;;;;;629.42;572.47;;;;;;;21.76;43.92;100178.66;20646124;28;20052;-77
2023/04/06 17:17:33;;;;;;;727.67;663.40;;;;;;;21.75;43.81;100177.84;20640921;28;20046;-77
2023/04/06 17:27:34;;;;;;;697.47;635.30;;;;;;;21.78;43.75;100184.66;20651645;28;20082;-74
2023/04/06 17:37:34;;;;;;;676.22;615.47;;;;;;;21.77;44.02;100196.16;20654980;28;20057;-76
2023/04/06 17:47:35;;;;;;;667.42;607.20;;;;;;;21.78;43.79;100207.53;20640172;28;20043;-76
2023/04/06 17:57:36;;;;;;;695.92;634.03;;;;;;;21.79;43.73;100209.19;20650915;28;20387;-76
2023/04/06 18:07:36;;;;;;;679.72;618.72;;;;;;;21.79;43.78;100225.00;20656280;28;20034;-76
2023/04/06 18:17:37;;;;;;;689.40;627.78;;;;;;;21.81;43.18;100218.63;20655473;28;20117;-78
2023/04/06 18:27:37;;;;;;;695.00;633.00;;;;;;;21.85;43.54;100224.50;20649337;28;20506;-76
2023/04/06 18:37:38;;;;;;;738.30;673.10;;;;;;;21.77;41.72;100230.41;20638445;28;20038;-77
2023/04/06 18:47:38;;;;;;;722.88;658.92;;;;;;;21.71;42.03;100228.28;20665073;28;20766;-75
2023/04/06 18:57:39;;;;;;;690.67;629.10;;;;;;;21.68;42.19;100218.84;20669576;28;20630;-77
2023/04/06 19:07:41;;;;;;;719.42;655.97;;;;;;;21.66;42.40;100217.28;20656282;28;20045;-75
2023/04/06 19:17:41;;;;;;;755.37;689.37;;;;;;;21.61;42.33;100227.38;20666937;28;20034;-76
2023/04/06 19:27:43;;;;;;;723.22;659.65;;;;;;;21.56;42.63;100219.81;20669434;28;20051;-76
2023/04/06 19:37:43;;;;;;;749.50;683.97;;;;;;;21.53;42.66;100218.25;20677566;28;20050;-77
2023/04/06 19:47:44;;;;;;;738.50;673.92;;;;;;;21.48;42.65;100206.41;20672900;28;20049;-76
2023/04/06 19:57:44;;;;;;;738.85;674.25;;;;;;;21.45;42.42;100207.50;20677335;28;20073;-76
2023/04/06 20:07:46;;;;;;;772.40;705.55;;;;;;;21.43;42.66;100206.78;20672089;28;20177;-77
2023/04/06 20:17:46;;;;;;;782.72;715.35;;;;;;;21.38;42.83;100209.78;20665221;28;20152;-76
2023/04/06 20:27:47;;;;;;;756.92;691.30;;;;;;;21.35;42.66;100207.41;20681640;28;20054;-76
2023/04/06 20:37:47;;;;;;;767.40;701.00;;;;;;;21.32;42.51;100198.94;20678249;28;20050;-77
2023/04/06 20:47:51;;;;;;;741.88;677.17;;;;;;;21.30;42.66;100191.16;20679928;28;20053;-78
2023/04/06 20:57:51;;;;;;;750.25;685.03;;;;;;;21.30;42.55;100190.31;20673730;28;20393;-76
2023/04/06 21:07:52;;;;;;;774.67;707.78;;;;;;;21.25;42.56;100190.69;20680740;28;20049;-76
2023/04/06 21:17:52;;;;;;;776.72;709.80;;;;;;;21.23;42.76;100180.28;20679482;28;20045;-76
2023/04/06 21:27:52;;;;;;;787.78;720.15;;;;;;;21.22;42.68;100188.31;20672388;28;20273;-76
2023/04/06 21:37:55;;;;;;;802.65;733.75;;;;;;;21.18;42.42;100182.44;20669272;28;20045;-75
2023/04/06 21:47:59;;;;;;;816.40;746.60;;;;;;;21.18;42.63;100173.69;20683401;28;20437;-75
2023/04/06 21:57:59;;;;;;;808.58;739.60;;;;;;;21.15;42.50;100158.16;20662545;28;20132;-75
2023/04/06 22:08:01;;;;;;;828.65;758.28;;;;;;;21.13;42.83;100133.75;20660119;28;20056;-75
2023/04/06 22:18:01;;;;;;;886.05;812.05;;;;;;;21.13;42.88;100125.84;20663874;28;20521;-76
2023/04/06 22:28:02;;;;;;;854.50;782.50;;;;;;;21.11;42.69;100131.25;20660314;28;20057;-76
2023/04/06 22:38:09;;;;;;;880.17;806.65;;;;;;;21.09;42.82;100128.75;20661673;28;20046;-75
2023/04/06 22:48:10;;;;;;;868.63;795.60;;;;;;;21.05;42.83;100126.47;20657843;28;20042;-75
2023/04/06 22:58:12;;;;;;;857.90;785.63;;;;;;;21.05;42.63;100119.41;20652696;28;20038;-75
2023/04/06 23:08:13;;;;;;;879.55;805.78;;;;;;;21.04;42.83;100135.34;20653863;28;20104;-74
2023/04/06 23:18:13;;;;;;;890.35;816.13;;;;;;;21.00;42.73;100118.94;20661395;28;20054;-75
2023/04/06 23:28:14;;;;;;;892.70;818.30;;;;;;;21.01;42.49;100114.53;20668819;28;20472;-76
2023/04/06 23:38:15;;;;;;;873.08;799.83;;;;;;;21.00;42.67;100107.59;20651880;28;20055;-75
2023/04/06 23:48:15;;;;;;;883.88;810.10;;;;;;;20.96;42.59;100112.28;20652020;28;20425;-75
2023/04/06 23:58:16;;;;;;;882.85;809.17;;;;;;;20.96;42.30;100096.47;20658312;28;22025;-74
